KTEXKHVE

Guest
Details From KTEX - Telluride Rgnl
To KHVE - Hanksville Airport
Flight Number -
Tags generated
Created
Modified
Stats Distance 141 nm / 261 km
Max Altitude 8,900 ft / 2,713 m
Waypoints 3
Social Downloads 0
Likes 0
Share VATSIM

Download

Looking for another format? Having issues loading an existing format? Contact us
Advertisement - Login to hide

Notes

Basic altitude profile: - Ascent Rate: 1300ft/min - Ascent Speed: 120kts - Cruise Altitude: 35000ft - Cruise Speed: 140kts - Descent Rate: 1500ft/min - Descent Speed: 250kts Options: - Use NATs: no - Use PACOTS: no - Use low airways: no - Use high airways: no

Route

KTEX 3800N11000W KHVE

ID Type Via Altitude Latitude Longitude Leg Dist Tot Dist Heading (true) Name
O KTEX APT - 0 ft / 0 m 37.95381˚ -107.90874˚ - 0 nm - Telluride Rgnl
3800N11000W LATLON - 8,900 ft / 2,713 m 38.00000˚ -110.00000˚ 99 nm 99 nm 272° / 271° -
O KHVE APT - 0 ft / 0 m 38.41941˚ -110.70242˚ 41 nm 140 nm 307° / 307° Hanksville Airport

Altitude Profile

Advertisement - Login to hide

KTEX

Details ICAO KTEX (TEX)
Name Telluride Rgnl
Region United States
Timezone America/Denver (UTC-7.0)
Stats Elevation 9,078 ft / 2,767 m (AMSL)
Location 37.953812° -107.908742°
Runways 1
Magnetic Variation 9.420° E

METAR

KTEX 170035Z AUTO 00000KT 10SM BKN100 BKN120 02/M21 A2982 RMK AO2 T00191212

Decode

TAF

TAF KTEX 162320Z 1700/1724 26008KT P6SM BKN130 FM170200 13005KT P6SM BKN110 FM170800 14004KT P6SM FEW130 SCT200 FM171200 12004KT P6SM SCT100 BKN130

Decode

Departure Runways

ID Width Length Bearing (true) Bearing (mag) Surface Threshold Offset Overrun Length
09 98 ft / 30 m 7,095 ft / 2,163 m 104.96° 95.54° Asphalt 200 ft / 61 m 400 ft / 122 m
27 98 ft / 30 m 7,095 ft / 2,163 m 284.98° 275.56° Asphalt 200 ft / 61 m 400 ft / 122 m

KHVE

Details ICAO KHVE
Name Hanksville Airport
Region United States
Timezone America/Denver (UTC-7.0)
Stats Elevation 4,443 ft / 1,354 m (AMSL)
Location 38.419414° -110.702422°
Runways 2
Magnetic Variation 10.614° E

METAR

KHVE 170035Z AUTO 00000KT 10SM CLR 02/M11 A2983 RMK AO2

Decode

TAF

Not found

Destination Runways

ID Width Length Bearing (true) Bearing (mag) Surface Threshold Offset Overrun Length
08 75 ft / 23 m 5,681 ft / 1,731 m 97.96° 87.35° Asphalt 600 ft / 183 m 0 ft / 0 m
17 120 ft / 37 m 4,861 ft / 1,482 m 186.06° 175.45° Dirt 0 ft / 0 m 0 ft / 0 m
26 75 ft / 23 m 5,681 ft / 1,731 m 277.97° 267.36° Asphalt 600 ft / 183 m 0 ft / 0 m
35 120 ft / 37 m 4,861 ft / 1,482 m 6.06° 355.45° Dirt 0 ft / 0 m 0 ft / 0 m

Popular Alternatives